Time;durP1;ratioP1;P1;durP2;ratioP2;P2;SDS_P1;SDS_P2;PMS_P1;PMS_P2;Temp;Humidity;BMP_temperature;BMP_pressure;BME280_temperature;BME280_humidity;BME280_pressure;Samples;Min_cycle;Max_cycle;Signal;HPM_P1;HPM_P2
2023/07/23 00:01:23;;;;;;;2.28;0.60;;;;;;;16.73;80.21;98640.28;5006369;28;20498;-45
2023/07/23 00:03:50;;;;;;;3.13;1.08;;;;;;;16.75;79.66;98638.44;5004594;28;20056;-42
2023/07/23 00:06:17;;;;;;;3.40;1.00;;;;;;;16.76;79.54;98640.13;5006604;28;20080;-45
2023/07/23 00:08:43;;;;;;;2.05;0.70;;;;;;;16.78;79.89;98633.03;5005186;28;20080;-43
2023/07/23 00:11:10;;;;;;;1.27;0.57;;;;;;;16.79;79.99;98635.56;5006346;28;20068;-44
2023/07/23 00:13:37;;;;;;;2.30;1.33;;;;;;;16.76;79.59;98633.13;5006220;28;20049;-45
2023/07/23 00:16:04;;;;;;;1.55;1.38;;;;;;;16.78;80.13;98627.81;5001274;28;20725;-43
2023/07/23 00:18:31;;;;;;;1.05;0.20;;;;;;;16.79;79.91;98626.91;5006377;28;20701;-41
2023/07/23 00:20:58;;;;;;;2.40;0.40;;;;;;;16.79;80.00;98624.28;5004841;28;20060;-47
2023/07/23 00:23:25;;;;;;;2.00;0.75;;;;;;;16.81;79.94;98622.41;5004725;28;20074;-45
2023/07/23 00:25:52;;;;;;;2.38;1.27;;;;;;;16.82;79.50;98631.97;5005158;28;20413;-44
2023/07/23 00:28:18;;;;;;;2.30;0.63;;;;;;;16.84;79.60;98632.72;4991673;28;20104;-44
2023/07/23 00:30:45;;;;;;;0.82;0.55;;;;;;;16.83;80.31;98620.59;4986039;28;20051;-45
2023/07/23 00:33:12;;;;;;;1.08;0.60;;;;;;;16.85;79.79;98620.50;4986401;28;20061;-43
2023/07/23 00:35:39;;;;;;;1.38;0.50;;;;;;;16.85;79.96;98623.94;4986644;28;20082;-45
2023/07/23 00:38:06;;;;;;;1.45;0.52;;;;;;;16.83;80.17;98626.66;4984892;28;20470;-44
2023/07/23 00:40:32;;;;;;;1.83;0.90;;;;;;;16.86;80.02;98625.66;4986520;28;20046;-44
2023/07/23 00:42:59;;;;;;;1.65;0.73;;;;;;;16.87;80.03;98623.88;4983978;28;20049;-41
2023/07/23 00:45:26;;;;;;;3.92;1.02;;;;;;;16.85;79.74;98608.25;4986544;28;20057;-42
2023/07/23 00:47:52;;;;;;;1.75;1.17;;;;;;;16.84;80.35;98611.81;4986139;28;20050;-46
2023/07/23 00:50:20;;;;;;;1.88;1.70;;;;;;;16.87;80.13;98616.88;4984565;28;20578;-43
2023/07/23 00:52:47;;;;;;;0.85;0.43;;;;;;;16.87;80.15;98627.34;4983241;28;20046;-43
2023/07/23 00:55:13;;;;;;;0.80;0.50;;;;;;;16.87;79.37;98606.44;4986371;28;20053;-43
2023/07/23 00:57:40;;;;;;;1.90;0.45;;;;;;;16.88;80.25;98602.88;4986127;28;20047;-43
2023/07/23 01:00:07;;;;;;;0.52;0.40;;;;;;;16.89;80.35;98599.34;4986342;28;20129;-46
2023/07/23 01:02:34;;;;;;;0.82;0.60;;;;;;;16.90;79.43;98595.81;4985651;28;20057;-43
2023/07/23 01:05:03;;;;;;;1.73;0.98;;;;;;;16.89;79.34;98590.66;4993933;28;20044;-41
2023/07/23 01:07:32;;;;;;;0.70;0.50;;;;;;;16.87;80.13;98592.50;5004454;28;20053;-46
2023/07/23 01:10:03;;;;;;;2.72;0.77;;;;;;;16.89;79.82;98581.03;4996715;28;20046;-43
2023/07/23 01:12:31;;;;;;;0.73;0.32;;;;;;;16.89;80.14;98581.03;5003166;28;20042;-44
2023/07/23 01:14:58;;;;;;;0.70;0.40;;;;;;;16.87;79.80;98580.28;5006277;28;20096;-45
2023/07/23 01:17:25;;;;;;;1.95;0.40;;;;;;;16.89;79.91;98578.41;4999838;28;20048;-47
2023/07/23 01:20:08;;;;;;;2.63;1.42;;;;;;;16.84;79.80;98580.44;5003194;28;20054;-44
2023/07/23 01:22:36;;;;;;;2.10;1.40;;;;;;;16.90;79.84;98574.91;5004197;28;20077;-44
2023/07/23 01:25:05;;;;;;;2.83;1.00;;;;;;;16.88;79.87;98566.28;4999591;28;20069;-45
2023/07/23 01:27:32;;;;;;;2.92;1.08;;;;;;;16.90;80.51;98569.66;5006842;28;20053;-48
2023/07/23 01:29:59;;;;;;;3.10;1.35;;;;;;;16.92;80.18;98578.25;5007833;28;20050;-47
2023/07/23 01:32:26;;;;;;;3.03;0.90;;;;;;;16.91;79.74;98566.13;5004300;28;20064;-44
2023/07/23 01:34:54;;;;;;;2.15;0.80;;;;;;;16.93;79.53;98574.72;5004286;28;20090;-49
2023/07/23 01:37:22;;;;;;;2.78;0.40;;;;;;;16.92;79.63;98565.19;5004544;28;20042;-44
2023/07/23 01:39:49;;;;;;;0.70;0.22;;;;;;;16.93;79.73;98569.47;5003845;28;20058;-43
2023/07/23 01:42:16;;;;;;;0.90;0.50;;;;;;;16.94;79.87;98572.94;4988620;28;20047;-45
2023/07/23 01:44:43;;;;;;;1.67;0.52;;;;;;;16.95;79.67;98575.50;4986040;28;20052;-45
2023/07/23 01:47:09;;;;;;;0.63;0.50;;;;;;;16.94;80.25;98571.19;4987528;28;20072;-44
2023/07/23 01:49:36;;;;;;;1.10;0.60;;;;;;;16.95;80.33;98572.88;4991819;28;20068;-46
2023/07/23 01:52:03;;;;;;;1.35;0.57;;;;;;;16.97;79.40;98559.72;4988145;28;20052;-44
2023/07/23 01:54:30;;;;;;;1.42;0.43;;;;;;;16.97;80.25;98564.94;4987055;28;20050;-43
2023/07/23 01:56:57;;;;;;;2.35;0.63;;;;;;;16.94;80.44;98563.34;4988964;28;20061;-44
2023/07/23 01:59:23;;;;;;;1.60;1.00;;;;;;;16.96;80.74;98558.03;4987960;28;20575;-42
2023/07/23 02:01:50;;;;;;;2.55;0.40;;;;;;;16.98;80.15;98565.81;4988627;28;20714;-44
2023/07/23 02:04:17;;;;;;;2.20;0.20;;;;;;;16.99;79.96;98557.03;4988023;28;20410;-44
2023/07/23 02:06:44;;;;;;;1.42;0.65;;;;;;;17.00;79.75;98554.34;4988083;28;20050;-45
2023/07/23 02:09:11;;;;;;;1.00;0.70;;;;;;;17.02;79.74;98559.47;4981319;28;20082;-44
2023/07/23 02:11:37;;;;;;;0.85;0.45;;;;;;;17.01;79.85;98556.00;4987755;28;20050;-44
2023/07/23 02:14:04;;;;;;;1.55;0.40;;;;;;;17.01;79.36;98560.38;4987876;28;20046;-44
2023/07/23 02:16:31;;;;;;;2.92;0.45;;;;;;;17.02;80.22;98555.06;4986398;28;20050;-45
2023/07/23 02:18:58;;;;;;;1.58;0.38;;;;;;;17.03;80.27;98555.94;4986522;28;20137;-43
2023/07/23 02:21:24;;;;;;;1.83;0.52;;;;;;;17.03;80.08;98553.31;4988630;28;20125;-47
2023/07/23 02:23:52;;;;;;;1.08;0.43;;;;;;;17.03;79.84;98553.31;4988162;28;20054;-47
2023/07/23 02:26:18;;;;;;;1.05;0.20;;;;;;;17.03;80.23;98558.56;4987765;28;20051;-46
2023/07/23 02:28:45;;;;;;;0.60;0.30;;;;;;;17.04;79.61;98544.53;4988574;28;20047;-44
2023/07/23 02:31:12;;;;;;;1.38;0.40;;;;;;;17.01;79.88;98548.16;4986152;28;20056;-41
2023/07/23 02:33:39;;;;;;;0.52;0.32;;;;;;;17.04;79.59;98544.53;4979506;28;20437;-43
2023/07/23 02:36:06;;;;;;;0.73;0.52;;;;;;;17.04;79.51;98540.16;4981790;28;20077;-42
2023/07/23 02:38:32;;;;;;;2.58;0.40;;;;;;;17.05;79.56;98540.97;4986769;28;20054;-45
2023/07/23 02:41:00;;;;;;;0.70;0.63;;;;;;;17.04;79.49;98534.94;4985522;28;20050;-46
2023/07/23 02:43:27;;;;;;;0.82;0.50;;;;;;;17.07;79.53;98544.41;4986662;28;20339;-43
2023/07/23 02:45:53;;;;;;;0.77;0.45;;;;;;;17.08;79.94;98546.09;4987404;28;20050;-45
2023/07/23 02:48:20;;;;;;;1.58;0.38;;;;;;;17.05;80.37;98539.25;4987720;28;20050;-41
2023/07/23 02:50:47;;;;;;;1.70;0.50;;;;;;;17.06;79.39;98547.97;4985940;28;20045;-44
2023/07/23 02:53:14;;;;;;;1.30;0.40;;;;;;;17.09;79.55;98547.78;4984182;28;20069;-44
2023/07/23 02:55:40;;;;;;;1.05;0.43;;;;;;;17.10;79.44;98544.25;4981583;28;20049;-43
2023/07/23 02:58:07;;;;;;;0.70;0.20;;;;;;;17.10;79.34;98533.78;4987809;28;20042;-45
2023/07/23 03:00:33;;;;;;;0.93;0.40;;;;;;;17.12;80.27;98537.16;4987035;28;20057;-45
2023/07/23 03:03:00;;;;;;;1.83;0.22;;;;;;;17.13;79.10;98538.84;4983109;28;20093;-47
2023/07/23 03:05:28;;;;;;;1.42;0.32;;;;;;;17.13;79.32;98538.84;4987214;28;20054;-46
2023/07/23 03:07:55;;;;;;;0.52;0.50;;;;;;;17.14;79.08;98534.44;4987190;28;20108;-43
2023/07/23 03:10:21;;;;;;;3.13;0.43;;;;;;;17.14;79.21;98535.31;4986470;28;20050;-44
2023/07/23 03:12:48;;;;;;;0.70;0.40;;;;;;;17.13;80.09;98546.69;4990917;28;20046;-45
2023/07/23 03:15:15;;;;;;;0.60;0.45;;;;;;;17.13;79.84;98538.84;4987625;28;20048;-44
2023/07/23 03:17:41;;;;;;;1.70;0.40;;;;;;;17.12;79.59;98536.31;4987529;28;20061;-43
2023/07/23 03:20:10;;;;;;;4.47;0.63;;;;;;;17.12;79.88;98537.16;4987209;28;20128;-42
2023/07/23 03:22:39;;;;;;;1.45;0.73;;;;;;;17.12;79.48;98539.75;4986754;28;20047;-47
2023/07/23 03:25:06;;;;;;;1.15;0.47;;;;;;;17.12;78.93;98542.38;4986149;28;20418;-44
2023/07/23 03:27:33;;;;;;;2.33;0.70;;;;;;;17.11;80.10;98545.94;4985659;28;20050;-44
2023/07/23 03:30:00;;;;;;;6.57;2.17;;;;;;;17.10;79.34;98544.25;4987758;28;20579;-43
2023/07/23 03:32:27;;;;;;;1.05;0.52;;;;;;;17.12;78.98;98542.38;4986036;28;20046;-43
2023/07/23 03:34:53;;;;;;;3.35;0.70;;;;;;;17.12;79.69;98542.38;4985948;28;20092;-45
2023/07/23 03:37:20;;;;;;;2.53;0.38;;;;;;;17.11;80.03;98551.16;4987247;28;20046;-42
2023/07/23 03:39:47;;;;;;;2.78;0.50;;;;;;;17.12;79.24;98552.84;4984743;28;20042;-42
2023/07/23 03:42:13;;;;;;;2.50;0.52;;;;;;;17.10;78.97;98549.47;4985621;28;20073;-44
2023/07/23 03:44:40;;;;;;;1.67;0.47;;;;;;;17.09;79.08;98553.00;4986943;28;20101;-44
2023/07/23 03:47:13;;;;;;;2.55;0.70;;;;;;;17.09;79.86;98547.78;4986997;28;20054;-44
2023/07/23 03:49:41;;;;;;;1.23;0.40;;;;;;;17.09;79.27;98548.63;4984577;28;20057;-43
2023/07/23 03:52:09;;;;;;;1.15;0.60;;;;;;;17.11;79.43;98556.41;4985106;28;20042;-42
2023/07/23 03:54:36;;;;;;;1.08;0.65;;;;;;;17.11;79.68;98555.53;4987196;28;20387;-42
2023/07/23 03:57:03;;;;;;;3.17;0.57;;;;;;;17.10;78.90;98554.72;4987589;28;20052;-44
2023/07/23 03:59:34;;;;;;;0.73;0.50;;;;;;;17.11;79.52;98550.31;4988457;28;20042;-43
2023/07/23 04:02:01;;;;;;;1.27;0.95;;;;;;;17.10;78.97;98554.72;4984928;28;20503;-45
2023/07/23 04:04:28;;;;;;;2.05;0.50;;;;;;;17.11;79.62;98551.16;4984749;28;20121;-44
2023/07/23 04:06:55;;;;;;;0.70;0.47;;;;;;;17.11;79.49;98548.53;4984121;28;20522;-44
2023/07/23 04:09:21;;;;;;;1.80;0.30;;;;;;;17.10;79.46;98554.72;4987131;28;20054;-42
2023/07/23 04:11:48;;;;;;;3.20;0.70;;;;;;;17.09;79.97;98555.63;4986151;28;20065;-45
2023/07/23 04:14:15;;;;;;;0.63;0.22;;;;;;;17.08;78.88;98551.31;4986597;28;20053;-42
2023/07/23 04:16:42;;;;;;;2.53;0.50;;;;;;;17.08;79.48;98561.78;4986639;28;20044;-46
2023/07/23 04:19:08;;;;;;;1.00;0.63;;;;;;;17.08;79.15;98548.69;4984094;28;20073;-44
2023/07/23 04:21:35;;;;;;;3.00;0.60;;;;;;;17.09;78.80;98558.22;4984174;28;20042;-43
2023/07/23 04:24:02;;;;;;;1.67;0.65;;;;;;;17.07;79.57;98560.09;4986791;28;20056;-46
2023/07/23 04:26:30;;;;;;;3.63;0.50;;;;;;;17.06;79.69;98554.00;4986099;28;20053;-44
2023/07/23 04:28:57;;;;;;;1.02;0.50;;;;;;;17.07;78.73;98558.34;4985587;28;20046;-48
2023/07/23 04:31:24;;;;;;;1.95;0.80;;;;;;;17.07;79.24;98554.88;4985196;28;20057;-45
2023/07/23 04:33:52;;;;;;;1.55;0.77;;;;;;;17.08;79.30;98560.03;4984436;28;20064;-46
2023/07/23 04:36:19;;;;;;;3.08;0.88;;;;;;;17.08;79.01;98560.03;4985078;28;20050;-45
2023/07/23 04:38:46;;;;;;;2.33;0.60;;;;;;;17.08;79.09;98556.56;4984758;28;20047;-43
2023/07/23 04:41:13;;;;;;;2.22;1.00;;;;;;;17.08;78.98;98556.56;4984889;28;20050;-45
2023/07/23 04:43:41;;;;;;;3.17;0.77;;;;;;;17.09;79.18;98547.78;4984904;28;20047;-45
2023/07/23 04:46:08;;;;;;;1.90;0.60;;;;;;;17.11;78.77;98555.53;4986354;28;20458;-43
2023/07/23 04:48:37;;;;;;;3.72;1.05;;;;;;;17.10;79.10;98554.72;4983780;28;20050;-41
2023/07/23 04:51:06;;;;;;;2.03;0.60;;;;;;;17.09;78.61;98563.47;4987102;28;20145;-41
2023/07/23 04:53:33;;;;;;;4.63;1.05;;;;;;;17.08;78.75;98562.63;4985602;28;20053;-43
2023/07/23 04:56:03;;;;;;;5.47;1.25;;;;;;;17.10;79.16;98565.19;4984463;28;20133;-44
2023/07/23 04:58:31;;;;;;;4.82;1.15;;;;;;;17.11;78.48;98572.09;4986368;28;20109;-43
2023/07/23 05:00:59;;;;;;;2.97;0.95;;;;;;;17.13;79.39;98577.25;4977034;28;20101;-43
2023/07/23 05:03:26;;;;;;;4.63;1.52;;;;;;;17.12;79.51;98572.94;4989716;28;20530;-42
2023/07/23 05:05:54;;;;;;;3.25;1.33;;;;;;;17.11;79.16;98577.31;4989624;28;20581;-43
2023/07/23 05:08:22;;;;;;;2.13;0.90;;;;;;;17.13;78.68;98570.25;4989644;28;20082;-46
2023/07/23 05:10:48;;;;;;;4.50;1.20;;;;;;;17.13;78.37;98567.63;4989082;28;20081;-44
2023/07/23 05:13:15;;;;;;;3.17;0.60;;;;;;;17.14;78.88;98577.16;4989082;28;20050;-43
2023/07/23 05:15:42;;;;;;;1.73;0.80;;;;;;;17.15;78.82;98577.97;4987675;28;20060;-45
2023/07/23 05:18:09;;;;;;;2.67;0.60;;;;;;;17.17;78.43;98576.16;4988566;28;20046;-45
2023/07/23 05:20:35;;;;;;;4.00;0.75;;;;;;;17.18;78.87;98578.69;4989392;28;20046;-44
2023/07/23 05:23:02;;;;;;;2.88;0.68;;;;;;;17.18;78.94;98583.06;4989366;28;20236;-44
2023/07/23 05:25:29;;;;;;;2.78;0.82;;;;;;;17.19;79.30;98584.78;4988482;28;20407;-44
2023/07/23 05:27:56;;;;;;;3.67;1.00;;;;;;;17.22;78.89;98579.34;4984490;28;20064;-43
2023/07/23 05:30:23;;;;;;;1.80;0.90;;;;;;;17.22;78.95;98579.34;4988463;28;20046;-44
2023/07/23 05:32:50;;;;;;;1.38;1.10;;;;;;;17.23;77.99;98585.44;4985479;28;20133;-42
2023/07/23 05:35:17;;;;;;;2.03;0.80;;;;;;;17.23;78.52;98590.66;4989180;28;20069;-45
2023/07/23 05:37:43;;;;;;;1.83;0.70;;;;;;;17.24;78.65;98602.81;4988933;28;20069;-44
2023/07/23 05:40:10;;;;;;;3.92;0.90;;;;;;;17.23;78.37;98595.91;4988894;28;20055;-43
2023/07/23 05:42:37;;;;;;;2.35;1.00;;;;;;;17.24;78.57;98597.59;4989388;28;20054;-44
2023/07/23 05:45:04;;;;;;;6.75;1.60;;;;;;;17.21;78.36;98604.69;4986529;28;20061;-46
2023/07/23 05:47:31;;;;;;;3.33;1.08;;;;;;;17.24;78.87;98602.81;4987093;28;20054;-43
2023/07/23 05:49:58;;;;;;;1.48;0.60;;;;;;;17.24;78.48;98603.66;4989523;28;20046;-43
2023/07/23 05:52:25;;;;;;;2.10;1.10;;;;;;;17.24;78.56;98598.44;4988399;28;20064;-42
2023/07/23 05:54:51;;;;;;;1.50;0.90;;;;;;;17.23;78.16;98596.75;4988879;28;20053;-43
2023/07/23 05:57:18;;;;;;;3.83;0.77;;;;;;;17.24;78.73;98587.97;4989644;28;20050;-47
2023/07/23 05:59:44;;;;;;;3.70;1.50;;;;;;;17.25;79.15;98596.69;4983638;28;20057;-45
2023/07/23 06:02:11;;;;;;;6.97;4.65;;;;;;;17.29;78.55;98592.97;4987523;28;20057;-43
2023/07/23 06:04:39;;;;;;;3.08;1.40;;;;;;;17.32;78.79;98592.78;4988352;28;20498;-42
2023/07/23 06:07:06;;;;;;;6.00;2.03;;;;;;;17.35;78.26;98595.22;4983368;28;20453;-44
2023/07/23 06:09:32;;;;;;;3.60;2.05;;;;;;;17.39;78.90;98596.75;4988749;28;20042;-41
2023/07/23 06:11:59;;;;;;;6.45;3.40;;;;;;;17.43;78.65;98600.88;4989163;28;20053;-42
2023/07/23 06:14:26;;;;;;;4.40;2.00;;;;;;;17.49;77.82;98601.50;4987777;28;20053;-45
2023/07/23 06:16:53;;;;;;;2.75;1.55;;;;;;;17.54;78.24;98591.63;4988868;28;20077;-45
2023/07/23 06:19:20;;;;;;;4.05;1.40;;;;;;;17.59;78.65;98598.28;4988224;28;20125;-44
2023/07/23 06:21:47;;;;;;;3.28;1.10;;;;;;;17.66;78.05;98597.97;4988679;28;20401;-46
2023/07/23 06:24:13;;;;;;;2.13;0.98;;;;;;;17.72;77.78;98597.59;4987605;28;20042;-41
2023/07/23 06:26:40;;;;;;;2.38;1.30;;;;;;;17.81;77.76;98602.34;4984233;28;20177;-46
2023/07/23 06:29:07;;;;;;;2.35;0.98;;;;;;;17.91;77.79;98600.03;4986711;28;20054;-44
2023/07/23 06:31:34;;;;;;;4.47;0.90;;;;;;;17.99;77.95;98608.31;4987574;28;20511;-43
2023/07/23 06:34:01;;;;;;;4.63;0.80;;;;;;;18.07;78.48;98602.63;4988274;28;20050;-44
2023/07/23 06:36:27;;;;;;;3.83;0.90;;;;;;;18.17;78.18;98602.13;4986808;28;20059;-44
2023/07/23 06:38:54;;;;;;;1.20;0.60;;;;;;;18.28;78.04;98609.38;5000195;28;20130;-44
2023/07/23 06:41:20;;;;;;;4.65;0.90;;;;;;;18.34;77.50;98616.88;4991489;28;20421;-44
2023/07/23 06:43:47;;;;;;;3.63;0.85;;;;;;;18.41;77.74;98615.56;4987848;28;20038;-45
2023/07/23 06:46:17;;;;;;;1.30;0.70;;;;;;;18.48;77.17;98614.28;4988017;28;20046;-47
2023/07/23 06:48:44;;;;;;;1.33;0.63;;;;;;;18.57;77.42;98625.16;4987870;28;20046;-45
2023/07/23 06:51:11;;;;;;;1.67;0.70;;;;;;;18.62;76.90;98617.88;4988438;28;20050;-44
2023/07/23 06:53:37;;;;;;;8.85;2.10;;;;;;;18.67;77.14;98615.00;4987437;28;20046;-45
2023/07/23 06:56:08;;;;;;;3.53;2.00;;;;;;;18.77;76.76;98620.53;4987107;28;20065;-45
2023/07/23 06:58:36;;;;;;;11.07;3.63;;;;;;;18.88;76.83;98628.59;4987554;28;20043;-47
2023/07/23 07:01:04;;;;;;;6.75;2.42;;;;;;;18.94;76.12;98628.22;4987658;28;20050;-43
2023/07/23 07:03:31;;;;;;;11.40;3.30;;;;;;;19.05;76.71;98631.97;4987645;28;20069;-45
2023/07/23 07:06:00;;;;;;;5.00;1.40;;;;;;;19.16;76.14;98637.47;4988271;28;20100;-42
2023/07/23 07:08:28;;;;;;;9.15;3.85;;;;;;;19.16;75.94;98637.47;4985109;28;20061;-43
2023/07/23 07:13:34;;;;;;;9.27;3.53;;;;;;;19.08;75.46;98639.72;5076070;27;21150;-44
2023/07/23 07:16:00;;;;;;;8.63;3.10;;;;;;;19.02;75.63;98644.34;5041544;28;20045;-45
2023/07/23 07:18:28;;;;;;;4.28;1.85;;;;;;;18.97;75.18;98641.16;5043503;28;20042;-45
2023/07/23 07:20:58;;;;;;;4.30;2.75;;;;;;;18.94;75.73;98638.72;5078056;28;20548;-45
2023/07/23 07:23:26;;;;;;;2.00;1.05;;;;;;;18.88;75.32;98639.09;5042459;28;20049;-45
2023/07/23 07:25:55;;;;;;;3.22;1.10;;;;;;;18.82;75.29;98639.47;5051212;28;20743;-46
2023/07/23 07:28:24;;;;;;;2.53;0.90;;;;;;;18.77;75.50;98636.28;5073831;28;20103;-45
2023/07/23 07:30:51;;;;;;;1.60;1.17;;;;;;;18.75;75.37;98642.44;5053507;28;20052;-46
2023/07/23 07:33:18;;;;;;;1.90;1.42;;;;;;;18.77;75.44;98649.38;5049503;28;20067;-46
2023/07/23 07:35:45;;;;;;;3.25;1.52;;;;;;;18.80;75.53;98646.56;5057514;28;20049;-42
2023/07/23 07:38:12;;;;;;;2.55;1.27;;;;;;;19.08;76.04;98652.81;5055951;28;20072;-45
2023/07/23 07:40:39;;;;;;;3.85;1.23;;;;;;;19.34;76.13;98645.97;5054175;28;20080;-42
2023/07/23 07:43:05;;;;;;;2.15;1.10;;;;;;;19.68;75.53;98643.00;5060346;28;20071;-44
2023/07/23 07:45:32;;;;;;;3.03;1.23;;;;;;;19.90;75.26;98652.16;5060353;28;20049;-48
2023/07/23 07:47:59;;;;;;;1.80;1.10;;;;;;;20.04;74.82;98656.56;5061817;28;20071;-44
2023/07/23 07:50:26;;;;;;;3.55;0.82;;;;;;;20.10;74.14;98652.69;5053550;28;20091;-49
2023/07/23 07:52:52;;;;;;;2.63;1.02;;;;;;;20.07;73.88;98647.63;5057176;28;20047;-45
2023/07/23 07:55:19;;;;;;;2.15;1.20;;;;;;;20.08;73.78;98650.16;5057708;28;20544;-44
2023/07/23 07:57:46;;;;;;;2.15;0.80;;;;;;;20.19;74.24;98646.81;5060579;28;20260;-46
2023/07/23 08:00:13;;;;;;;1.50;1.00;;;;;;;20.25;73.52;98653.47;5059120;28;20051;-44
2023/07/23 08:02:41;;;;;;;2.42;1.13;;;;;;;20.22;73.30;98662.41;5057517;28;20052;-45
2023/07/23 08:05:08;;;;;;;8.00;3.33;;;;;;;20.19;73.13;98657.34;5043380;28;20069;-47
2023/07/23 08:07:35;;;;;;;6.05;2.78;;;;;;;20.14;73.05;98667.31;5059390;28;20072;-45
2023/07/23 08:10:02;;;;;;;5.90;2.60;;;;;;;20.11;73.17;98664.88;5044941;28;20045;-46
2023/07/23 08:12:30;;;;;;;9.68;4.20;;;;;;;20.02;72.17;98664.53;5046215;28;20485;-45
2023/07/23 08:14:59;;;;;;;6.18;2.72;;;;;;;20.09;72.82;98672.03;5057905;28;20064;-44
2023/07/23 08:17:25;;;;;;;3.97;1.75;;;;;;;20.18;72.78;98671.44;5056714;28;20087;-46
2023/07/23 08:19:52;;;;;;;7.10;3.33;;;;;;;20.22;72.39;98678.19;5052384;28;20086;-46
2023/07/23 08:22:19;;;;;;;6.43;3.13;;;;;;;20.24;72.72;98673.69;5051552;28;20044;-46
2023/07/23 08:24:46;;;;;;;8.38;3.13;;;;;;;20.27;72.64;98676.06;5045213;28;20044;-44
2023/07/23 08:27:17;;;;;;;4.13;2.00;;;;;;;20.27;72.51;98670.81;5047023;28;20053;-44
2023/07/23 08:29:45;;;;;;;3.50;2.03;;;;;;;20.27;71.98;98673.44;5042102;28;20041;-46
2023/07/23 08:32:19;;;;;;;5.18;1.33;;;;;;;20.26;72.06;98679.66;5036172;28;20095;-46
2023/07/23 08:34:46;;;;;;;5.70;2.17;;;;;;;20.28;71.81;98683.03;5046774;28;20080;-44
2023/07/23 08:37:13;;;;;;;4.95;2.65;;;;;;;20.31;71.60;98686.41;5039561;28;20460;-46
2023/07/23 08:39:40;;;;;;;3.38;2.00;;;;;;;20.46;71.98;98682.75;5039330;28;20045;-46
2023/07/23 08:47:22;;;;;;;8.40;6.28;;;;;;;21.41;71.22;98686.97;5035502;27;20403;-44
2023/07/23 08:49:52;;;;;;;13.75;6.72;;;;;;;21.62;71.12;98689.06;5061228;28;20433;-43
2023/07/23 08:52:20;;;;;;;23.95;11.60;;;;;;;21.97;70.54;98690.16;5037253;28;20068;-44
2023/07/23 08:54:47;;;;;;;34.15;18.10;;;;;;;22.35;70.42;98698.84;5035042;28;20049;-47
2023/07/23 08:57:14;;;;;;;11.80;9.48;;;;;;;22.65;69.32;98692.28;5041972;28;20136;-48
2023/07/23 08:59:43;;;;;;;3.22;2.30;;;;;;;22.93;68.26;98697.28;5042583;28;20408;-46
2023/07/23 09:02:12;;;;;;;2.45;1.23;;;;;;;22.92;66.89;98699.06;5042544;28;20049;-43
2023/07/23 09:04:39;;;;;;;1.50;1.35;;;;;;;22.78;67.00;98707.19;5040109;28;20061;-45
2023/07/23 09:07:10;;;;;;;7.82;5.65;;;;;;;22.62;66.10;98707.50;5041180;28;20059;-46
2023/07/23 09:09:36;;;;;;;4.53;2.15;;;;;;;22.47;66.60;98715.56;5039988;28;20064;-50
2023/07/23 09:12:04;;;;;;;2.88;1.08;;;;;;;22.29;66.39;98713.31;5043051;28;20077;-49
2023/07/23 09:14:41;;;;;;;3.42;0.75;;;;;;;22.12;65.84;98716.34;5041867;28;20555;-47
2023/07/23 09:17:17;;;;;;;2.20;1.23;;;;;;;22.03;66.28;98723.97;5042647;28;20060;-44
2023/07/23 09:19:43;;;;;;;;;;;;;;;22.02;66.93;98727.53;5042439;28;20044;-45
2023/07/23 09:22:10;;;;;;;2.10;1.88;;;;;;;22.35;67.79;98719.94;5039924;28;19925;-45
2023/07/23 09:24:37;;;;;;;2.30;1.45;;;;;;;22.66;67.05;98719.50;5042076;28;20041;-45
2023/07/23 09:27:10;;;;;;;2.17;1.33;;;;;;;22.76;66.45;98720.50;5042197;28;20045;-47
2023/07/23 09:29:41;;;;;;;4.38;1.23;;;;;;;22.76;65.94;98731.03;5042120;28;20053;-44
2023/07/23 09:32:23;;;;;;;2.25;1.27;;;;;;;22.67;65.59;98731.75;5041293;28;20041;-45
2023/07/23 09:34:49;;;;;;;2.67;1.80;;;;;;;22.65;65.55;98733.63;5037163;28;20048;-46
2023/07/23 09:37:17;;;;;;;3.10;1.48;;;;;;;22.61;65.27;98727.75;5035350;28;20058;-44
2023/07/23 09:39:44;;;;;;;4.00;3.05;;;;;;;22.57;66.07;98732.44;5033119;28;20221;-45
2023/07/23 09:42:12;;;;;;;4.32;2.70;;;;;;;22.56;65.58;98725.47;5034535;28;20069;-47
2023/07/23 09:44:39;;;;;;;2.40;1.38;;;;;;;22.60;65.49;98737.47;5037089;28;20655;-45
2023/07/23 09:47:06;;;;;;;2.65;0.93;;;;;;;22.61;64.96;98743.59;5030829;28;20049;-49
2023/07/23 09:49:33;;;;;;;5.43;1.70;;;;;;;22.58;64.79;98734.13;5037795;28;20049;-47
2023/07/23 09:52:06;;;;;;;3.30;2.22;;;;;;;22.59;65.38;98751.63;5039271;28;20049;-43
2023/07/23 09:54:34;;;;;;;1.77;1.10;;;;;;;22.66;64.76;98756.47;5038503;28;20045;-44
2023/07/23 09:57:02;;;;;;;2.88;1.67;;;;;;;22.69;64.24;98750.94;5025532;28;20046;-46
2023/07/23 09:59:30;;;;;;;1.75;1.23;;;;;;;22.63;64.36;98754.84;5021507;28;20132;-49
2023/07/23 10:01:57;;;;;;;3.72;2.28;;;;;;;22.59;64.29;98756.03;5023883;28;20045;-47
2023/07/23 10:04:28;;;;;;;3.97;2.38;;;;;;;22.58;63.57;98751.72;5023833;28;20291;-47
2023/07/23 10:06:55;;;;;;;3.60;1.30;;;;;;;22.65;63.96;98754.75;5020755;28;20476;-44
2023/07/23 10:09:23;;;;;;;3.10;1.40;;;;;;;22.73;64.24;98757.69;5026911;28;20502;-48
2023/07/23 10:11:50;;;;;;;3.60;2.00;;;;;;;22.75;62.90;98755.75;5019793;28;20052;-46
2023/07/23 10:14:16;;;;;;;4.72;2.55;;;;;;;22.88;63.87;98760.13;5026581;28;20046;-45
2023/07/23 10:16:44;;;;;;;3.78;1.83;;;;;;;23.06;64.06;98756.09;5023233;28;20187;-42
2023/07/23 10:19:13;;;;;;;3.55;2.10;;;;;;;23.29;63.97;98758.78;5017830;28;20057;-48
2023/07/23 10:21:45;;;;;;;4.85;2.13;;;;;;;23.42;62.76;98760.50;5017716;28;20149;-45
2023/07/23 10:24:11;;;;;;;4.90;2.58;;;;;;;23.54;62.80;98767.47;5025351;28;20057;-45
2023/07/23 10:26:40;;;;;;;1.48;0.88;;;;;;;23.70;62.10;98766.28;5026111;28;20069;-43
2023/07/23 10:29:13;;;;;;;4.35;1.77;;;;;;;23.85;60.98;98773.00;5026720;28;20042;-44
2023/07/23 10:31:42;;;;;;;2.17;1.30;;;;;;;24.00;61.82;98768.31;5023631;28;20045;-42
2023/07/23 10:37:19;;;;;;;1.27;0.70;;;;;;;24.19;61.05;98773.97;5087362;27;20977;-46
2023/07/23 10:39:53;;;;;;;1.27;1.02;;;;;;;24.25;60.56;98774.31;5038223;28;20060;-44
2023/07/23 10:47:58;;;;;;;2.80;1.10;;;;;;;24.32;59.41;98782.56;5056561;28;20821;-44
2023/07/23 10:50:29;;;;;;;4.38;2.60;;;;;;;24.27;59.48;98782.13;5024977;28;20045;-46
2023/07/23 10:53:02;;;;;;;3.30;1.70;;;;;;;24.26;59.03;98788.38;5025520;28;20053;-45
2023/07/23 10:55:47;;;;;;;2.22;2.03;;;;;;;24.22;59.02;98784.31;5021054;28;20061;-45
2023/07/23 10:58:15;;;;;;;1.92;1.83;;;;;;;24.27;59.28;98787.41;5005597;28;20074;-45
2023/07/23 11:03:22;;;;;;;1.70;0.88;;;;;;;24.36;58.61;98784.03;5054663;28;20395;-46
2023/07/23 11:05:51;;;;;;;1.60;1.15;;;;;;;24.51;59.32;98789.03;4998928;28;20693;-46
2023/07/23 11:10:56;;;;;;;1.85;1.35;;;;;;;24.87;57.57;98781.72;5094138;27;20418;-44
2023/07/23 11:13:31;;;;;;;3.72;3.42;;;;;;;24.95;57.68;98788.19;5062812;28;20052;-46
2023/07/23 11:15:58;;;;;;;10.88;6.95;;;;;;;25.06;57.69;98784.63;5044789;28;20048;-48
2023/07/23 11:18:25;;;;;;;9.18;7.55;;;;;;;25.08;57.17;98790.63;5061826;28;20045;-46
2023/07/23 11:20:53;;;;;;;5.65;5.05;;;;;;;25.02;56.79;98789.34;5062202;28;20048;-46
2023/07/23 11:23:22;;;;;;;2.88;2.55;;;;;;;24.92;56.74;98794.56;5060861;28;20051;-44
2023/07/23 11:25:50;;;;;;;4.15;2.72;;;;;;;24.77;56.72;98786.06;5051516;28;20045;-47
2023/07/23 11:28:21;;;;;;;3.25;2.95;;;;;;;24.59;56.35;98789.25;5025051;28;20037;-47
2023/07/23 11:30:49;;;;;;;3.20;2.15;;;;;;;24.35;56.53;98792.91;5042287;28;20052;-45
2023/07/23 11:33:17;;;;;;;2.03;1.15;;;;;;;24.23;57.15;98788.63;5057029;28;20749;-47
2023/07/23 11:35:44;;;;;;;3.15;2.95;;;;;;;24.15;57.27;98785.75;5055601;28;20136;-48
2023/07/23 11:38:11;;;;;;;3.45;2.85;;;;;;;24.18;57.81;98790.81;5056574;28;20044;-45
2023/07/23 11:40:38;;;;;;;2.28;2.00;;;;;;;24.23;58.26;98791.25;5039005;28;20540;-47
2023/07/23 11:43:06;;;;;;;2.72;2.53;;;;;;;24.32;58.50;98798.44;5058470;28;20044;-45
2023/07/23 11:45:50;;;;;;;2.65;1.65;;;;;;;24.31;57.60;98802.06;5061979;28;20107;-47
2023/07/23 11:48:21;;;;;;;3.05;2.58;;;;;;;24.26;57.63;98793.66;5055911;28;20537;-48
2023/07/23 11:50:49;;;;;;;3.33;2.95;;;;;;;24.19;57.91;98788.03;5039082;28;20041;-47
2023/07/23 11:53:34;;;;;;;3.47;2.90;;;;;;;24.10;58.08;98788.72;5042602;28;20049;-45
2023/07/23 11:56:13;;;;;;;10.63;6.13;;;;;;;24.13;58.33;98783.22;5058061;28;20792;-45
2023/07/23 11:58:40;;;;;;;5.10;4.47;;;;;;;24.21;58.34;98790.56;5056309;28;20657;-44